Spring's Hourly Summary for Monday, March 13, 2017
Hour Temp
(f)
RH
(%)
Solar Rad.
(MJ/m2)
Rainfall
(in)
Wind
(mph)
3/13/2017 12:00 AM 53 84 0 0 1.9
3/13/2017 1:00 AM 52 88 0 0 1.82
3/13/2017 2:00 AM 51 88 0 0 0.65
3/13/2017 3:00 AM 50 92 0 0 0.07
3/13/2017 4:00 AM 49 95 0 0 0.54
3/13/2017 5:00 AM 48 96 0 0 2.35
3/13/2017 6:00 AM 48 94 0 0 3.17
3/13/2017 7:00 AM 49 92 0 0 3.51
3/13/2017 8:00 AM 50 92 0.01 0 3.6
3/13/2017 9:00 AM 51 90 0.13 0 4.66
3/13/2017 10:00 AM 53 82 0.37 0 5.3
3/13/2017 11:00 AM 55 77 0.86 0 3.98
3/13/2017 12:00 PM 56 76 0.66 0 7.37
3/13/2017 1:00 PM 55 71 1.41 0 6.57
3/13/2017 2:00 PM 58 69 1.72 0 6.28
3/13/2017 3:00 PM 60 63 2.28 0 5.47
3/13/2017 4:00 PM 63 55 2.75 0 5.09
3/13/2017 5:00 PM 66 52 2.21 0 7.84
3/13/2017 6:00 PM 65 52 1.44 0 8.44
3/13/2017 7:00 PM 63 53 0.62 0 8.25
3/13/2017 8:00 PM 60 57 0.05 0 3.95
3/13/2017 9:00 PM 57 65 0 0 0.41
3/13/2017 10:00 PM 53 78 0 0 0.02
3/13/2017 11:00 PM 51 87 0 0 0.17
Data Summary 54 77 14.51 0.00 3.81